Time;durP1;ratioP1;P1;durP2;ratioP2;P2;SDS_P1;SDS_P2;PMS_P1;PMS_P2;Temp;Humidity;BMP_temperature;BMP_pressure;BME280_temperature;BME280_humidity;BME280_pressure;Samples;Min_cycle;Max_cycle;Signal;HPM_P1;HPM_P2
2021/06/19 00:00:31;;;;;;;15.25;8.68;;;19.40;99.90;;;;;;4977394;28;20041;-85
2021/06/19 00:02:59;;;;;;;19.52;9.80;;;19.40;99.90;;;;;;4993588;28;20039;-85
2021/06/19 00:05:27;;;;;;;22.45;10.60;;;19.40;99.90;;;;;;4977277;28;20037;-86
2021/06/19 00:07:54;;;;;;;13.38;9.32;;;19.30;99.90;;;;;;4977485;28;20039;-85
2021/06/19 00:10:21;;;;;;;16.35;10.23;;;19.40;99.90;;;;;;4993108;28;20046;-85
2021/06/19 00:12:50;;;;;;;12.82;9.43;;;19.40;99.90;;;;;;4961731;28;20054;-85
2021/06/19 00:15:20;;;;;;;16.55;9.07;;;19.40;99.90;;;;;;4977560;28;20122;-85
2021/06/19 00:17:47;;;;;;;16.63;10.13;;;19.40;99.90;;;;;;4977256;28;20047;-85
2021/06/19 00:20:25;;;;;;;18.85;9.85;;;19.40;99.90;;;;;;4977158;28;20035;-85
2021/06/19 00:22:53;;;;;;;15.80;9.93;;;19.30;99.90;;;;;;5010136;28;20122;-86
2021/06/19 00:25:22;;;;;;;12.10;9.57;;;19.30;99.90;;;;;;4977553;28;20082;-86
2021/06/19 00:27:49;;;;;;;19.50;11.25;;;19.30;99.90;;;;;;4993136;28;20097;-85
2021/06/19 00:30:17;;;;;;;14.27;10.07;;;19.30;99.90;;;;;;5010268;28;20042;-85
2021/06/19 00:32:45;;;;;;;16.80;10.98;;;19.30;99.90;;;;;;4976886;28;20123;-85
2021/06/19 00:35:12;;;;;;;18.23;10.65;;;19.30;99.90;;;;;;4977096;28;20038;-85
2021/06/19 00:37:39;;;;;;;19.08;10.32;;;19.30;99.90;;;;;;4992431;28;20034;-85
2021/06/19 00:40:12;;;;;;;14.82;10.82;;;19.30;99.90;;;;;;4961097;28;20041;-85
2021/06/19 00:42:39;;;;;;;18.25;10.68;;;19.30;99.90;;;;;;4992314;28;20046;-85
2021/06/19 00:45:07;;;;;;;24.45;12.77;;;19.30;99.90;;;;;;4992642;28;20043;-85
2021/06/19 00:47:38;;;;;;;14.95;10.57;;;19.30;99.90;;;;;;4976426;28;20063;-84
2021/06/19 00:50:07;;;;;;;17.88;11.13;;;19.20;99.90;;;;;;4992729;28;20030;-85
2021/06/19 00:52:34;;;;;;;14.75;10.18;;;19.20;99.90;;;;;;4945847;28;20416;-86
2021/06/19 00:55:01;;;;;;;17.02;10.52;;;19.20;99.90;;;;;;4977209;28;20043;-85
2021/06/19 00:57:28;;;;;;;24.38;11.52;;;19.20;99.90;;;;;;4976872;28;20042;-85
2021/06/19 00:59:58;;;;;;;16.98;11.02;;;19.10;99.90;;;;;;4961282;28;20115;-86
2021/06/19 01:02:25;;;;;;;15.65;10.05;;;19.10;99.90;;;;;;4992414;28;20039;-85
2021/06/19 01:04:53;;;;;;;17.75;11.77;;;19.10;99.90;;;;;;4976169;28;20098;-86
2021/06/19 01:07:19;;;;;;;13.57;10.40;;;19.10;99.90;;;;;;4992228;28;20041;-85
2021/06/19 01:09:46;;;;;;;14.75;11.30;;;19.10;99.90;;;;;;4960179;28;20038;-86
2021/06/19 01:12:13;;;;;;;14.30;10.90;;;19.10;99.90;;;;;;4960846;28;20444;-86
2021/06/19 01:14:43;;;;;;;14.02;10.52;;;19.10;99.90;;;;;;4960366;28;20118;-86
2021/06/19 01:17:09;;;;;;;16.60;11.27;;;19.00;99.90;;;;;;4976637;28;20403;-85
2021/06/19 01:19:36;;;;;;;17.50;11.75;;;19.10;99.90;;;;;;4960242;28;20042;-86
2021/06/19 01:22:04;;;;;;;16.02;11.02;;;19.10;99.90;;;;;;4976122;28;20035;-86
2021/06/19 01:24:32;;;;;;;18.17;11.65;;;19.10;99.90;;;;;;4960101;28;20046;-86
2021/06/19 01:26:59;;;;;;;17.02;11.75;;;19.10;99.90;;;;;;4960472;28;20448;-85
2021/06/19 01:29:26;;;;;;;14.68;11.25;;;19.00;99.90;;;;;;4976290;28;20126;-86
2021/06/19 01:31:53;;;;;;;14.52;10.88;;;19.10;99.90;;;;;;4960041;28;20062;-86
2021/06/19 01:34:20;;;;;;;18.95;12.82;;;19.00;99.90;;;;;;4975582;28;20043;-85
2021/06/19 01:36:47;;;;;;;18.17;12.20;;;19.00;99.90;;;;;;4975610;28;20528;-85
2021/06/19 01:39:14;;;;;;;14.55;10.95;;;19.00;99.90;;;;;;4975981;28;20035;-86
2021/06/19 01:41:40;;;;;;;16.75;11.10;;;19.00;99.90;;;;;;4975672;28;20403;-86
2021/06/19 01:44:11;;;;;;;13.70;11.10;;;19.00;99.90;;;;;;4959952;28;20075;-85
2021/06/19 01:46:41;;;;;;;20.52;11.52;;;19.00;99.90;;;;;;4991346;28;20403;-85
2021/06/19 01:49:09;;;;;;;16.38;11.05;;;19.00;99.90;;;;;;4991548;28;20035;-86
2021/06/19 01:51:36;;;;;;;20.10;11.88;;;18.90;99.90;;;;;;4991304;28;20066;-85
2021/06/19 01:54:03;;;;;;;17.60;11.57;;;18.90;99.90;;;;;;4991492;28;20125;-86
2021/06/19 01:56:30;;;;;;;15.93;11.40;;;18.90;99.90;;;;;;4975667;28;20041;-86
2021/06/19 01:58:57;;;;;;;13.40;11.48;;;18.90;99.90;;;;;;4975329;28;20073;-86
2021/06/19 02:01:24;;;;;;;24.23;13.57;;;18.90;99.90;;;;;;4975635;28;20491;-86
2021/06/19 02:03:51;;;;;;;18.13;12.93;;;18.90;99.90;;;;;;4959343;28;20499;-86
2021/06/19 02:06:18;;;;;;;17.48;13.57;;;18.80;99.90;;;;;;4975648;28;20056;-86
2021/06/19 02:09:07;;;;;;;25.85;15.65;;;18.80;99.90;;;;;;4991038;28;20039;-86
2021/06/19 02:11:36;;;;;;;19.80;14.30;;;18.90;99.90;;;;;;4991142;28;20542;-86
2021/06/19 02:14:04;;;;;;;27.13;16.27;;;18.80;99.90;;;;;;4975542;28;20039;-85
2021/06/19 02:16:31;;;;;;;17.73;14.20;;;18.80;99.90;;;;;;4991296;28;20085;-85
2021/06/19 02:18:58;;;;;;;19.25;14.60;;;18.90;99.90;;;;;;4990889;28;20158;-83
2021/06/19 02:21:25;;;;;;;20.65;14.85;;;18.80;99.90;;;;;;4975480;28;20110;-84
2021/06/19 02:23:52;;;;;;;19.20;16.02;;;18.80;99.90;;;;;;4974844;28;20506;-85
2021/06/19 02:26:18;;;;;;;21.67;16.00;;;18.90;99.90;;;;;;4959586;28;20043;-85
2021/06/19 02:28:45;;;;;;;23.58;16.13;;;18.90;99.90;;;;;;4974831;28;20043;-85
2021/06/19 02:31:12;;;;;;;27.98;17.38;;;18.90;99.90;;;;;;4959308;28;20502;-85
2021/06/19 02:33:39;;;;;;;20.38;16.33;;;18.90;99.90;;;;;;4958882;28;20050;-85
2021/06/19 02:36:06;;;;;;;23.40;16.88;;;18.90;99.90;;;;;;4975468;28;20114;-85
2021/06/19 02:38:33;;;;;;;24.42;16.80;;;18.80;99.90;;;;;;4959507;28;20077;-86
2021/06/19 02:41:00;;;;;;;30.80;18.30;;;18.80;99.90;;;;;;4974892;28;20066;-85
2021/06/19 02:43:27;;;;;;;21.67;16.98;;;18.80;99.90;;;;;;4975099;28;20074;-85
2021/06/19 02:45:58;;;;;;;23.00;16.40;;;18.80;99.90;;;;;;4994340;28;20054;-84
2021/06/19 02:48:26;;;;;;;24.20;18.80;;;18.80;99.90;;;;;;4979200;28;20230;-85
2021/06/19 02:50:53;;;;;;;24.60;18.98;;;18.80;99.90;;;;;;4962321;28;20035;-85
2021/06/19 02:53:20;;;;;;;23.05;19.60;;;18.80;99.90;;;;;;4978353;28;20046;-85
2021/06/19 02:55:47;;;;;;;26.42;20.15;;;18.80;99.90;;;;;;4993875;28;20045;-86
2021/06/19 02:58:15;;;;;;;27.20;20.55;;;18.80;99.90;;;;;;4994377;28;20038;-85
2021/06/19 03:00:43;;;;;;;26.42;20.27;;;18.80;99.90;;;;;;4993795;28;20042;-86
2021/06/19 03:03:10;;;;;;;26.83;21.60;;;18.80;99.90;;;;;;4978312;28;20035;-85
2021/06/19 03:05:38;;;;;;;24.05;19.73;;;18.80;99.90;;;;;;4994032;28;20122;-85
2021/06/19 03:08:06;;;;;;;32.08;21.55;;;18.80;99.90;;;;;;4961990;28;20035;-85
2021/06/19 03:10:35;;;;;;;27.40;20.92;;;18.80;99.90;;;;;;4994251;28;20109;-85
2021/06/19 03:13:03;;;;;;;26.10;20.23;;;18.80;99.90;;;;;;4993963;28;20043;-85
2021/06/19 03:15:30;;;;;;;29.00;21.55;;;18.80;99.90;;;;;;4994515;28;20042;-86
2021/06/19 03:17:57;;;;;;;41.67;23.77;;;18.70;99.90;;;;;;4977917;28;20057;-86
2021/06/19 03:20:24;;;;;;;29.60;21.90;;;18.70;99.90;;;;;;4994344;28;20046;-85
2021/06/19 03:22:54;;;;;;;31.63;23.73;;;18.70;99.90;;;;;;4993843;28;20498;-86
2021/06/19 03:25:43;;;;;;;32.03;24.33;;;18.80;99.90;;;;;;4994252;28;20471;-84
2021/06/19 03:28:12;;;;;;;38.42;27.30;;;18.80;99.90;;;;;;4994157;28;20239;-84
2021/06/19 03:30:41;;;;;;;38.83;26.48;;;18.80;99.90;;;;;;4962391;28;20039;-85
2021/06/19 03:33:09;;;;;;;32.30;25.33;;;18.80;99.90;;;;;;4993623;28;20070;-84
2021/06/19 03:35:36;;;;;;;31.73;23.95;;;18.90;99.90;;;;;;4978268;28;20035;-85
2021/06/19 03:38:05;;;;;;;32.65;24.48;;;18.90;99.90;;;;;;4977635;28;20062;-84
2021/06/19 03:40:34;;;;;;;34.08;23.63;;;18.90;99.90;;;;;;4978246;28;20089;-85
2021/06/19 03:43:02;;;;;;;26.33;22.15;;;18.90;99.90;;;;;;4993497;28;20476;-85
2021/06/19 03:45:35;;;;;;;28.58;21.50;;;19.00;99.90;;;;;;4993937;28;20038;-85
2021/06/19 03:48:06;;;;;;;29.10;21.70;;;19.00;99.90;;;;;;4993572;28;20121;-84
2021/06/19 03:50:34;;;;;;;30.10;21.17;;;19.00;99.90;;;;;;4993805;28;20034;-85
2021/06/19 03:53:01;;;;;;;22.30;19.08;;;19.00;99.90;;;;;;4993280;28;20043;-84
2021/06/19 03:55:29;;;;;;;23.90;18.67;;;19.10;99.90;;;;;;4961731;28;20042;-85
2021/06/19 03:57:58;;;;;;;23.52;18.15;;;19.10;99.90;;;;;;4977121;28;20035;-84
2021/06/19 04:00:25;;;;;;;27.50;18.75;;;19.10;99.90;;;;;;4993614;28;20035;-85
2021/06/19 04:02:52;;;;;;;24.80;18.75;;;19.10;99.90;;;;;;4977108;28;20038;-84
2021/06/19 04:05:19;;;;;;;25.27;18.48;;;19.10;99.90;;;;;;4977514;28;20049;-84
2021/06/19 04:07:46;;;;;;;22.50;17.80;;;19.10;99.90;;;;;;4976849;28;20035;-84
2021/06/19 04:10:14;;;;;;;26.92;18.00;;;19.10;99.90;;;;;;4977320;28;20038;-85
2021/06/19 04:12:41;;;;;;;23.83;18.17;;;19.10;99.90;;;;;;4977474;28;20042;-85
2021/06/19 04:15:10;;;;;;;23.10;17.70;;;19.10;99.90;;;;;;4961110;28;20046;-85
2021/06/19 04:17:37;;;;;;;21.30;17.77;;;19.20;99.90;;;;;;4993113;28;20492;-84
2021/06/19 04:20:06;;;;;;;26.13;18.38;;;19.10;99.90;;;;;;4961008;28;20472;-84
2021/06/19 04:22:33;;;;;;;26.95;17.08;;;19.10;99.90;;;;;;4977075;28;20046;-84
2021/06/19 04:24:59;;;;;;;23.50;17.80;;;19.20;99.90;;;;;;4992701;28;20038;-84
2021/06/19 04:27:26;;;;;;;27.17;18.50;;;19.30;99.90;;;;;;4961598;28;20038;-85
2021/06/19 04:29:54;;;;;;;24.20;17.70;;;19.30;99.90;;;;;;4976811;28;20046;-84
2021/06/19 04:32:21;;;;;;;27.63;16.95;;;19.30;99.90;;;;;;4977522;28;20494;-85
2021/06/19 04:34:48;;;;;;;24.95;16.98;;;19.30;99.90;;;;;;4992996;28;20423;-85
2021/06/19 04:37:16;;;;;;;23.40;16.80;;;19.30;99.90;;;;;;4961185;28;20042;-85
2021/06/19 04:42:42;;;;;;;22.70;17.98;;;19.30;99.90;;;;;;4973813;28;20051;-84
2021/06/19 04:45:12;;;;;;;21.27;17.23;;;19.30;99.90;;;;;;4994350;28;20039;-87
2021/06/19 04:47:39;;;;;;;21.10;17.45;;;19.20;99.90;;;;;;4977152;28;20380;-85
2021/06/19 04:50:09;;;;;;;25.85;17.63;;;19.20;99.90;;;;;;4976530;28;20537;-84
2021/06/19 04:52:42;;;;;;;22.48;18.13;;;19.20;99.90;;;;;;4976738;28;20054;-85
2021/06/19 04:55:11;;;;;;;24.80;18.08;;;19.20;99.90;;;;;;4977043;28;20045;-87
2021/06/19 04:57:39;;;;;;;26.77;18.42;;;19.30;99.90;;;;;;4992649;28;20042;-86
2021/06/19 05:00:09;;;;;;;25.55;20.20;;;19.30;99.90;;;;;;4991911;28;20462;-85
2021/06/19 05:02:36;;;;;;;27.48;19.52;;;19.30;99.90;;;;;;4976743;28;20051;-85
2021/06/19 05:05:05;;;;;;;24.98;18.63;;;19.30;99.90;;;;;;4983830;29;20043;-84
2021/06/19 05:07:35;;;;;;;24.88;18.75;;;19.30;99.90;;;;;;4973181;29;20042;-85
2021/06/19 05:10:05;;;;;;;23.15;18.90;;;19.40;99.90;;;;;;4989090;29;20113;-85
2021/06/19 05:12:33;;;;;;;26.42;19.35;;;19.50;99.90;;;;;;4986704;28;20132;-85
2021/06/19 05:15:04;;;;;;;23.77;19.08;;;19.60;99.90;;;;;;4978183;29;20114;-86
2021/06/19 05:17:31;;;;;;;24.33;19.50;;;19.70;99.90;;;;;;4973150;29;20131;-85
2021/06/19 05:19:58;;;;;;;25.45;19.25;;;19.70;99.90;;;;;;4972639;29;20114;-86
2021/06/19 05:22:25;;;;;;;24.88;19.30;;;19.80;99.90;;;;;;4973020;29;20039;-85
2021/06/19 05:24:52;;;;;;;26.90;20.13;;;19.80;99.90;;;;;;4957318;29;20039;-85
2021/06/19 05:27:18;;;;;;;24.00;20.00;;;19.90;99.90;;;;;;4960167;29;20043;-86
2021/06/19 05:29:45;;;;;;;25.77;20.00;;;20.00;99.90;;;;;;4972967;29;20035;-87
2021/06/19 05:32:12;;;;;;;28.02;20.33;;;20.10;99.90;;;;;;4966463;28;20057;-86
2021/06/19 05:34:41;;;;;;;23.40;20.42;;;20.20;99.90;;;;;;5011753;28;20055;-86
2021/06/19 05:37:09;;;;;;;29.27;20.55;;;20.20;99.90;;;;;;4965148;29;20043;-86
2021/06/19 05:39:36;;;;;;;23.23;19.58;;;20.20;99.90;;;;;;4980859;28;20088;-87
2021/06/19 05:42:03;;;;;;;25.42;20.33;;;20.10;99.90;;;;;;4994877;28;20038;-86
2021/06/19 05:44:30;;;;;;;25.40;19.77;;;20.10;99.90;;;;;;4995254;28;20124;-86
2021/06/19 05:46:57;;;;;;;26.52;20.60;;;20.10;99.90;;;;;;4979253;28;20118;-86
2021/06/19 05:49:23;;;;;;;27.88;20.98;;;20.10;99.90;;;;;;4995282;28;20506;-86
2021/06/19 05:51:50;;;;;;;26.38;20.48;;;20.10;99.90;;;;;;4991709;28;20082;-86
2021/06/19 05:54:17;;;;;;;28.85;22.58;;;20.20;99.90;;;;;;4977325;29;20050;-87
2021/06/19 05:56:44;;;;;;;21.92;19.55;;;20.40;99.90;;;;;;4991761;28;20116;-85
2021/06/19 05:59:11;;;;;;;26.65;20.83;;;20.40;99.90;;;;;;4978679;28;20471;-85
2021/06/19 06:01:37;;;;;;;21.55;18.10;;;20.40;99.90;;;;;;4981992;29;20046;-88
2021/06/19 06:04:04;;;;;;;20.33;16.50;;;20.50;99.90;;;;;;4940364;29;20043;-86
2021/06/19 06:06:31;;;;;;;20.05;17.33;;;20.40;99.90;;;;;;4970022;28;20045;-85
2021/06/19 06:08:59;;;;;;;21.45;16.85;;;20.30;99.90;;;;;;5010910;28;20042;-87
2021/06/19 06:11:25;;;;;;;21.30;16.60;;;20.30;99.90;;;;;;5002679;28;20453;-87
2021/06/19 06:13:52;;;;;;;19.73;17.23;;;20.30;99.90;;;;;;4995408;28;20134;-86
2021/06/19 06:16:19;;;;;;;19.30;16.10;;;20.30;99.90;;;;;;4976569;28;20045;-85
2021/06/19 06:18:46;;;;;;;20.73;14.95;;;20.30;99.90;;;;;;4988277;28;20526;-86
2021/06/19 06:21:12;;;;;;;19.65;15.27;;;20.30;99.90;;;;;;4966217;28;20035;-85
2021/06/19 06:23:39;;;;;;;20.75;15.93;;;20.20;99.90;;;;;;4993586;28;20122;-86
2021/06/19 06:26:06;;;;;;;23.92;16.38;;;20.20;99.90;;;;;;4962546;28;20046;-92
2021/06/19 06:28:33;;;;;;;18.08;14.88;;;20.30;99.90;;;;;;4988443;28;20052;-86
2021/06/19 06:31:00;;;;;;;20.50;15.57;;;20.30;99.90;;;;;;4966297;28;20038;-86
2021/06/19 06:33:27;;;;;;;16.75;14.57;;;20.40;99.90;;;;;;4978913;28;20121;-88
2021/06/19 06:35:55;;;;;;;21.73;15.05;;;20.40;99.90;;;;;;4995873;28;20478;-92
2021/06/19 06:38:22;;;;;;;19.55;14.80;;;20.50;99.90;;;;;;4978980;28;20483;-89
2021/06/19 06:40:49;;;;;;;15.80;14.10;;;20.50;99.90;;;;;;4995188;28;20082;-87
2021/06/19 06:43:16;;;;;;;18.70;14.55;;;20.60;99.90;;;;;;4975452;28;20069;-89
2021/06/19 06:45:43;;;;;;;20.35;15.25;;;20.60;99.90;;;;;;4976131;28;20411;-86
2021/06/19 06:48:10;;;;;;;21.42;15.13;;;20.70;99.90;;;;;;4975376;28;20529;-87
2021/06/19 06:50:37;;;;;;;20.95;15.70;;;20.70;99.90;;;;;;4975573;28;20046;-84
2021/06/19 06:53:04;;;;;;;18.63;13.55;;;20.90;99.90;;;;;;4976326;28;20089;-85
2021/06/19 06:55:31;;;;;;;18.15;12.85;;;21.00;99.90;;;;;;4981188;29;20385;-86
2021/06/19 06:57:58;;;;;;;15.18;12.63;;;21.00;99.90;;;;;;4957338;28;20436;-86
2021/06/19 07:00:25;;;;;;;16.35;11.55;;;20.90;99.90;;;;;;4993809;28;20038;-84
2021/06/19 07:02:52;;;;;;;17.65;11.75;;;20.80;99.90;;;;;;5010763;28;20125;-85
2021/06/19 07:05:19;;;;;;;15.65;11.38;;;20.70;99.90;;;;;;4994144;28;20074;-86
2021/06/19 07:07:47;;;;;;;16.20;11.77;;;20.70;99.90;;;;;;4994470;28;20046;-85
2021/06/19 07:10:14;;;;;;;15.48;10.88;;;20.80;99.90;;;;;;5007594;28;20394;-86
2021/06/19 07:12:42;;;;;;;13.30;10.77;;;20.90;99.90;;;;;;4978516;28;20050;-86
2021/06/19 07:15:11;;;;;;;13.27;9.70;;;21.00;99.90;;;;;;4966365;28;20049;-86
2021/06/19 07:17:38;;;;;;;13.70;9.88;;;21.10;99.90;;;;;;5013753;28;20061;-87
2021/06/19 07:20:07;;;;;;;14.00;10.18;;;21.10;99.90;;;;;;4994486;28;20038;-81
2021/06/19 07:22:35;;;;;;;16.05;10.98;;;21.10;99.90;;;;;;5026633;28;20046;-83
2021/06/19 07:25:05;;;;;;;13.98;11.52;;;21.20;99.90;;;;;;4994140;28;20039;-81
2021/06/19 07:27:32;;;;;;;17.77;11.93;;;21.20;99.90;;;;;;4999805;28;20067;-80
2021/06/19 07:29:58;;;;;;;15.85;12.02;;;21.20;99.90;;;;;;5010023;28;20065;-82
2021/06/19 07:32:25;;;;;;;14.50;11.63;;;21.20;99.90;;;;;;5008225;28;20114;-91
2021/06/19 07:34:52;;;;;;;16.20;11.48;;;21.10;99.90;;;;;;4985171;28;20505;-81
2021/06/19 07:37:19;;;;;;;16.20;11.50;;;21.20;99.90;;;;;;4980793;28;20414;-81
2021/06/19 07:39:46;;;;;;;17.60;11.05;;;21.20;99.90;;;;;;5030644;28;20042;-81
2021/06/19 07:42:12;;;;;;;15.13;11.77;;;21.30;99.90;;;;;;4994156;28;20109;-81
2021/06/19 07:44:39;;;;;;;18.25;12.32;;;21.40;99.90;;;;;;4946471;28;20047;-77
2021/06/19 07:47:06;;;;;;;15.00;11.23;;;21.50;99.90;;;;;;4993887;28;20479;-80
2021/06/19 07:49:33;;;;;;;15.85;11.65;;;21.70;99.90;;;;;;4978380;28;20411;-80
2021/06/19 07:52:01;;;;;;;15.10;12.13;;;21.80;99.90;;;;;;4981101;28;20121;-79
2021/06/19 07:54:28;;;;;;;18.02;11.50;;;21.90;99.90;;;;;;5005537;28;20106;-79
2021/06/19 07:56:55;;;;;;;17.23;11.82;;;22.00;99.90;;;;;;4983079;28;20390;-81
2021/06/19 07:59:22;;;;;;;13.77;10.98;;;22.00;99.90;;;;;;4984045;29;20131;-81
2021/06/19 08:01:49;;;;;;;15.45;10.40;;;22.10;99.90;;;;;;4976853;28;20038;-78
2021/06/19 08:04:17;;;;;;;12.82;9.50;;;21.90;99.90;;;;;;4994222;28;20039;-87
2021/06/19 08:06:44;;;;;;;14.73;9.73;;;21.70;99.90;;;;;;4978123;28;20042;-87
2021/06/19 08:09:12;;;;;;;13.52;8.85;;;21.40;99.90;;;;;;4994978;28;20045;-87
2021/06/19 08:11:39;;;;;;;13.55;9.40;;;21.20;99.90;;;;;;4977875;28;20122;-86
2021/06/19 08:14:06;;;;;;;12.10;8.40;;;21.20;99.90;;;;;;4962842;28;20151;-81
2021/06/19 08:16:36;;;;;;;13.30;7.80;;;21.20;99.90;;;;;;4961244;28;20089;-88
2021/06/19 08:19:02;;;;;;;12.80;7.43;;;21.30;99.90;;;;;;4974797;29;20039;-86
2021/06/19 08:21:29;;;;;;;10.55;6.95;;;21.40;99.90;;;;;;4990277;29;20043;-86
2021/06/19 08:23:56;;;;;;;11.68;7.00;;;21.40;99.90;;;;;;4958461;29;20114;-85
2021/06/19 08:26:23;;;;;;;10.50;6.63;;;21.50;99.90;;;;;;4974201;29;20043;-86
2021/06/19 08:28:50;;;;;;;12.93;6.97;;;21.60;99.90;;;;;;4958864;29;20407;-86
2021/06/19 08:31:17;;;;;;;12.48;8.63;;;21.40;99.90;;;;;;4958171;29;20444;-87
2021/06/19 08:33:44;;;;;;;12.07;8.50;;;21.50;99.90;;;;;;4994074;28;20431;-87
2021/06/19 08:36:11;;;;;;;13.75;9.52;;;21.30;99.90;;;;;;4994423;28;20042;-86
2021/06/19 08:38:38;;;;;;;13.90;8.50;;;21.30;99.90;;;;;;4961789;28;20522;-86
2021/06/19 08:41:08;;;;;;;16.50;9.80;;;21.40;99.90;;;;;;4947371;28;20077;-89
2021/06/19 08:43:40;;;;;;;12.38;8.50;;;21.50;99.90;;;;;;4982268;28;20053;-88
2021/06/19 08:46:09;;;;;;;15.52;9.07;;;21.50;99.90;;;;;;4977956;29;20377;-86
2021/06/19 08:48:39;;;;;;;14.60;8.95;;;21.50;99.90;;;;;;4990217;29;20039;-88
2021/06/19 08:51:06;;;;;;;14.52;9.55;;;21.50;99.90;;;;;;4975338;29;20043;-88
2021/06/19 08:53:33;;;;;;;12.80;8.13;;;21.70;99.90;;;;;;4945110;29;20103;-87
2021/06/19 08:56:00;;;;;;;12.23;8.63;;;21.80;99.90;;;;;;4991425;29;20046;-88
2021/06/19 08:58:27;;;;;;;13.27;8.77;;;21.90;99.90;;;;;;4960287;29;20043;-90
2021/06/19 09:01:00;;;;;;;15.50;8.95;;;22.00;99.90;;;;;;4959416;29;20091;-90
2021/06/19 09:03:28;;;;;;;13.65;8.48;;;22.00;99.90;;;;;;4975368;29;20543;-90
2021/06/19 09:06:17;;;;;;;13.23;8.43;;;22.20;99.90;;;;;;4944492;29;20055;-90
2021/06/19 09:09:03;;;;;;;12.30;8.77;;;22.30;99.90;;;;;;4974087;29;20043;-87
2021/06/19 09:11:33;;;;;;;12.20;8.38;;;22.30;99.90;;;;;;4974693;29;20407;-90
2021/06/19 09:14:01;;;;;;;14.73;7.40;;;22.50;99.90;;;;;;4958463;29;20094;-88
2021/06/19 09:16:28;;;;;;;12.90;8.77;;;22.70;99.90;;;;;;4988722;29;20050;-76
2021/06/19 09:19:02;;;;;;;14.68;9.43;;;22.70;99.90;;;;;;4944631;29;20039;-90
2021/06/19 09:21:35;;;;;;;14.70;9.13;;;22.70;99.90;;;;;;4976891;29;20480;-90
2021/06/19 09:24:02;;;;;;;15.35;9.85;;;22.80;99.90;;;;;;4991523;28;20106;-91
2021/06/19 09:26:32;;;;;;;14.68;8.85;;;22.80;99.90;;;;;;4978493;28;20526;-87
2021/06/19 09:29:16;;;;;;;14.80;8.70;;;22.70;99.90;;;;;;5011896;28;20050;-86
2021/06/19 09:31:42;;;;;;;15.27;10.38;;;22.60;99.90;;;;;;4995870;28;20038;-84
2021/06/19 09:34:21;;;;;;;18.10;12.07;;;22.50;99.90;;;;;;5011783;28;20045;-86
2021/06/19 09:36:52;;;;;;;16.13;11.55;;;22.40;99.90;;;;;;5011500;28;20042;-84
2021/06/19 09:39:28;;;;;;;18.48;11.77;;;22.30;99.90;;;;;;5011877;28;20042;-89
2021/06/19 09:42:00;;;;;;;18.80;11.93;;;22.40;99.90;;;;;;4998003;28;20042;-91
2021/06/19 09:44:48;;;;;;;18.75;12.40;;;22.60;99.90;;;;;;4981542;28;20494;-91
2021/06/19 09:47:19;;;;;;;15.98;11.43;;;22.40;99.90;;;;;;5011970;28;20030;-81
2021/06/19 09:49:48;;;;;;;17.95;12.82;;;22.50;99.90;;;;;;5011195;28;20133;-85
2021/06/19 09:52:26;;;;;;;20.92;13.50;;;22.30;99.90;;;;;;5011046;28;20050;-84
2021/06/19 09:54:59;;;;;;;17.38;12.27;;;22.50;99.90;;;;;;5010591;28;20042;-83
2021/06/19 09:57:41;;;;;;;18.25;12.63;;;22.70;99.90;;;;;;5010920;28;20475;-83
2021/06/19 10:00:16;;;;;;;17.90;11.73;;;22.80;99.90;;;;;;5010829;28;20042;-84
2021/06/19 10:02:44;;;;;;;17.13;11.45;;;22.80;99.90;;;;;;5010681;28;20069;-83
2021/06/19 10:05:12;;;;;;;14.75;9.80;;;23.10;99.90;;;;;;5028240;28;20471;-80
2021/06/19 10:07:39;;;;;;;11.00;8.02;;;23.20;99.90;;;;;;4994257;28;20042;-86
2021/06/19 10:10:12;;;;;;;11.68;8.48;;;23.30;99.90;;;;;;4986441;29;20070;-84
2021/06/19 10:12:40;;;;;;;11.85;8.05;;;23.50;99.90;;;;;;4972552;29;20048;-90
2021/06/19 10:15:13;;;;;;;9.85;7.95;;;23.60;99.90;;;;;;5020173;28;20046;-88
2021/06/19 10:17:42;;;;;;;13.45;8.45;;;23.60;99.90;;;;;;4988479;28;20047;-71
2021/06/19 10:20:12;;;;;;;12.10;7.80;;;23.50;99.90;;;;;;4999170;28;20046;-76
2021/06/19 10:22:40;;;;;;;11.50;8.73;;;23.50;99.90;;;;;;4997123;28;20438;-78
2021/06/19 10:25:10;;;;;;;11.45;9.00;;;23.40;99.90;;;;;;5000462;28;20097;-80
2021/06/19 10:27:47;;;;;;;11.77;8.68;;;23.40;99.90;;;;;;4995392;28;20071;-85
2021/06/19 10:30:17;;;;;;;12.85;8.48;;;23.40;99.90;;;;;;5011461;28;20035;-94
2021/06/19 10:32:51;;;;;;;13.98;10.02;;;23.40;99.90;;;;;;4995587;28;20038;-89
2021/06/19 10:35:21;;;;;;;13.80;9.50;;;23.40;99.90;;;;;;4995486;28;20034;-77
2021/06/19 10:37:50;;;;;;;13.18;8.95;;;23.70;99.90;;;;;;4999175;28;20038;-71
2021/06/19 10:40:26;;;;;;;12.85;10.23;;;23.80;99.90;;;;;;5015444;28;20030;-74
2021/06/19 10:42:55;;;;;;;13.95;9.35;;;24.00;99.90;;;;;;5004161;28;20035;-72
2021/06/19 10:45:26;;;;;;;17.77;10.57;;;24.10;99.90;;;;;;5017993;28;20043;-71
2021/06/19 10:48:07;;;;;;;13.18;9.85;;;24.10;99.90;;;;;;4970952;29;20043;-70
2021/06/19 10:50:36;;;;;;;15.52;10.25;;;24.00;99.90;;;;;;4987770;29;20062;-73
2021/06/19 10:53:12;;;;;;;13.05;9.20;;;23.70;99.90;;;;;;4988437;29;20036;-74
2021/06/19 10:55:44;;;;;;;13.40;9.07;;;23.90;99.90;;;;;;4987678;29;20050;-70
2021/06/19 10:58:30;;;;;;;12.40;8.80;;;24.20;99.90;;;;;;4988229;29;20031;-71
2021/06/19 11:01:00;;;;;;;;;;;24.50;99.90;;;;;;4970987;29;20036;-72
2021/06/19 11:03:47;;;;;;;13.00;9.07;;;24.80;99.90;;;;;;4971119;29;20020;-72
2021/06/19 11:06:28;;;;;;;15.68;9.20;;;25.00;99.90;;;;;;4972122;29;20058;-75
2021/06/19 11:09:16;;;;;;;11.73;8.68;;;24.80;99.90;;;;;;4958894;29;20044;-86
2021/06/19 11:11:54;;;;;;;14.07;9.25;;;24.80;99.90;;;;;;4982013;29;20031;-84
2021/06/19 11:15:01;;;;;;;12.77;9.30;;;24.90;99.90;;;;;;4975796;29;20488;-87
2021/06/19 11:17:31;;;;;;;12.63;8.45;;;24.80;99.90;;;;;;4977320;28;20054;-69
2021/06/19 11:20:25;;;;;;;12.10;8.60;;;24.80;99.90;;;;;;4989022;28;20551;-70
2021/06/19 11:22:58;;;;;;;14.13;10.15;;;25.00;99.90;;;;;;5000155;28;20133;-70
2021/06/19 11:25:52;;;;;;;11.75;8.55;;;25.00;99.90;;;;;;5001184;28;20128;-70
2021/06/19 11:28:19;;;;;;;14.13;9.85;;;25.10;99.90;;;;;;5013076;28;20478;-70
2021/06/19 11:30:58;;;;;;;14.70;10.80;;;25.20;99.90;;;;;;5015720;28;20150;-70
2021/06/19 11:33:27;;;;;;;15.80;11.90;;;25.20;99.90;;;;;;4993685;28;20043;-70
2021/06/19 11:35:58;;;;;;;13.13;10.73;;;24.90;99.90;;;;;;5010199;28;20043;-70
2021/06/19 11:38:42;;;;;;;12.43;9.85;;;24.50;99.90;;;;;;4993495;28;20392;-69
2021/06/19 11:41:13;;;;;;;11.43;8.40;;;24.40;99.90;;;;;;4993523;28;20054;-70
2021/06/19 11:43:46;;;;;;;10.27;8.23;;;24.20;99.90;;;;;;4993936;28;20047;-87
2021/06/19 11:46:17;;;;;;;9.48;8.40;;;24.10;99.90;;;;;;4979723;28;20082;-91
2021/06/19 11:48:53;;;;;;;10.38;7.22;;;24.40;99.90;;;;;;4981190;28;20046;-89
2021/06/19 11:51:26;;;;;;;10.82;8.48;;;24.70;99.90;;;;;;4982336;28;20185;-96
2021/06/19 11:53:56;;;;;;;10.27;8.68;;;24.70;99.90;;;;;;4981777;28;20046;-91
2021/06/19 11:56:33;;;;;;;13.50;9.55;;;24.80;99.90;;;;;;4981983;28;20377;-96
2021/06/19 11:59:04;;;;;;;11.85;8.70;;;24.80;99.90;;;;;;4983586;28;20051;-92
2021/06/19 12:01:36;;;;;;;9.57;8.43;;;24.80;99.90;;;;;;5002666;28;20128;-91
2021/06/19 12:04:07;;;;;;;11.98;9.15;;;24.90;99.90;;;;;;4993641;28;20402;-93
2021/06/19 12:06:44;;;;;;;9.05;7.95;;;24.80;99.90;;;;;;4990786;29;20043;-93
2021/06/19 12:09:33;;;;;;;10.25;8.48;;;25.00;99.90;;;;;;5013130;28;20062;-95
2021/06/19 12:12:11;;;;;;;11.32;8.02;;;25.00;99.90;;;;;;4984439;28;20074;-93
2021/06/19 12:14:50;;;;;;;10.35;8.60;;;24.90;99.90;;;;;;5013035;28;20074;-94
2021/06/19 12:17:23;;;;;;;8.23;7.32;;;24.80;99.90;;;;;;4985281;28;20074;-92
2021/06/19 12:19:51;;;;;;;10.15;6.85;;;25.00;99.90;;;;;;4962064;28;20055;-92
2021/06/19 12:22:18;;;;;;;8.15;7.07;;;25.20;99.90;;;;;;4973264;29;20403;-94
2021/06/19 12:24:48;;;;;;;8.00;6.55;;;25.20;99.90;;;;;;4965796;28;20133;-92
2021/06/19 12:27:27;;;;;;;7.20;6.10;;;25.50;99.90;;;;;;4998473;28;20057;-95
2021/06/19 12:30:01;;;;;;;8.27;6.90;;;25.60;99.90;;;;;;4941987;29;20043;-87
2021/06/19 12:32:38;;;;;;;8.27;6.40;;;25.70;99.90;;;;;;4981074;29;20059;-90
2021/06/19 12:35:13;;;;;;;8.30;7.32;;;25.70;99.90;;;;;;4956312;29;20071;-88
2021/06/19 12:37:48;;;;;;;8.52;6.93;;;25.50;99.90;;;;;;4954010;28;20054;-89
2021/06/19 12:40:15;;;;;;;9.10;7.90;;;25.40;99.90;;;;;;4981472;28;20066;-87
2021/06/19 12:42:59;;;;;;;10.85;7.25;;;25.50;99.90;;;;;;4962673;29;20044;-84
2021/06/19 12:45:34;;;;;;;8.38;7.00;;;25.50;99.90;;;;;;4954791;29;20036;-90